Time,TemperatureF,DewpointF,PressureIn,WindDirection,WindDirectionDegrees,WindSpeedMPH,WindSpeedGustMPH,Humidity,HourlyPrecipIn,Conditions,Clouds,dailyrainin,SoftwareType,DateUTC
2013-08-10 00:04:00,61.8,56.6,30.11,North,360,0.0,0.0,83,0.00,,,0.00,Wunderground v.1.15,2013-08-10 05:04:00,
2013-08-10 00:10:00,61.6,56.7,30.11,North,360,0.0,0.0,84,0.00,,,0.00,Wunderground v.1.15,2013-08-10 05:10:00,
2013-08-10 00:15:00,61.6,57.0,30.11,North,360,0.0,0.0,85,0.00,,,0.00,Wunderground v.1.15,2013-08-10 05:15:00,
2013-08-10 00:20:00,61.6,57.0,30.11,North,360,0.0,0.0,85,0.00,,,0.00,Wunderground v.1.15,2013-08-10 05:20:00,
2013-08-10 00:26:00,61.5,56.9,30.11,North,360,0.0,0.0,85,0.00,,,0.00,Wunderground v.1.15,2013-08-10 05:26:00,
2013-08-10 00:32:00,61.4,56.8,30.11,North,360,0.0,0.0,85,0.00,,,0.00,Wunderground v.1.15,2013-08-10 05:32:00,
2013-08-10 00:38:00,61.3,57.1,30.11,North,360,0.0,0.0,86,0.00,,,0.00,Wunderground v.1.15,2013-08-10 05:38:00,
2013-08-10 00:43:00,61.3,57.1,30.11,North,360,0.0,0.0,86,0.00,,,0.00,Wunderground v.1.15,2013-08-10 05:43:00,
2013-08-10 00:48:00,61.2,57.3,30.11,North,360,0.0,0.0,87,0.00,,,0.00,Wunderground v.1.15,2013-08-10 05:48:00,
2013-08-10 00:54:00,61.1,57.2,30.11,North,360,0.0,0.0,87,0.00,,,0.00,Wunderground v.1.15,2013-08-10 05:54:00,
2013-08-10 00:59:00,61.0,57.4,30.11,North,360,0.0,0.0,88,0.00,,,0.00,Wunderground v.1.15,2013-08-10 05:59:00,
2013-08-10 01:04:00,60.9,57.3,30.11,North,360,0.0,0.0,88,0.00,,,0.00,Wunderground v.1.15,2013-08-10 06:04:00,
2013-08-10 01:10:00,60.8,57.2,30.11,North,360,0.0,0.0,88,0.00,,,0.00,Wunderground v.1.15,2013-08-10 06:10:00,
2013-08-10 01:15:00,60.8,57.5,30.12,North,360,0.0,0.0,89,0.00,,,0.00,Wunderground v.1.15,2013-08-10 06:15:00,
2013-08-10 01:20:00,60.6,57.3,30.12,North,360,0.0,0.0,89,0.00,,,0.00,Wunderground v.1.15,2013-08-10 06:20:00,
2013-08-10 01:25:00,60.5,56.9,30.11,North,360,0.0,0.0,88,0.00,,,0.00,Wunderground v.1.15,2013-08-10 06:25:00,
2013-08-10 01:30:00,60.3,56.7,30.12,North,360,0.0,0.0,88,0.00,,,0.00,Wunderground v.1.15,2013-08-10 06:30:00,
2013-08-10 01:36:00,60.0,56.4,30.12,North,360,0.0,0.0,88,0.00,,,0.00,Wunderground v.1.15,2013-08-10 06:36:00,
2013-08-10 01:43:00,59.7,56.1,30.12,North,360,0.0,0.0,88,0.00,,,0.00,Wunderground v.1.15,2013-08-10 06:43:00,
2013-08-10 01:48:00,59.4,55.8,30.12,North,360,0.0,0.0,88,0.00,,,0.00,Wunderground v.1.15,2013-08-10 06:48:00,
2013-08-10 01:53:00,59.1,55.9,30.12,North,360,0.0,0.0,89,0.00,,,0.00,Wunderground v.1.15,2013-08-10 06:53:00,
2013-08-10 01:59:00,58.8,55.6,30.12,North,360,0.0,0.0,89,0.00,,,0.00,Wunderground v.1.15,2013-08-10 06:59:00,
2013-08-10 02:05:00,58.5,55.3,30.12,North,360,0.0,0.0,89,0.00,,,0.00,Wunderground v.1.15,2013-08-10 07:05:00,
2013-08-10 02:10:00,58.2,55.0,30.12,North,360,0.0,0.0,89,0.00,,,0.00,Wunderground v.1.15,2013-08-10 07:10:00,
2013-08-10 02:15:00,57.8,54.6,30.13,North,360,0.0,0.0,89,0.00,,,0.00,Wunderground v.1.15,2013-08-10 07:15:00,
2013-08-10 02:20:00,57.5,54.6,30.13,North,360,0.0,0.0,90,0.00,,,0.00,Wunderground v.1.15,2013-08-10 07:20:00,
2013-08-10 02:25:00,57.1,54.2,30.13,North,360,0.0,0.0,90,0.00,,,0.00,Wunderground v.1.15,2013-08-10 07:25:00,
2013-08-10 02:30:00,56.8,53.9,30.13,North,360,0.0,0.0,90,0.00,,,0.00,Wunderground v.1.15,2013-08-10 07:30:00,
2013-08-10 02:35:00,56.5,53.9,30.13,North,360,0.0,0.0,91,0.00,,,0.00,Wunderground v.1.15,2013-08-10 07:35:00,
2013-08-10 02:41:00,56.2,53.6,30.13,North,360,0.0,0.0,91,0.00,,,0.00,Wunderground v.1.15,2013-08-10 07:41:00,
2013-08-10 02:46:00,55.9,53.3,30.13,North,360,0.0,0.0,91,0.00,,,0.00,Wunderground v.1.15,2013-08-10 07:46:00,
2013-08-10 02:51:00,55.6,53.0,30.14,North,360,0.0,0.0,91,0.00,,,0.00,Wunderground v.1.15,2013-08-10 07:51:00,
2013-08-10 02:56:00,55.3,53.0,30.14,North,360,0.0,0.0,92,0.00,,,0.00,Wunderground v.1.15,2013-08-10 07:56:00,
2013-08-10 03:01:00,55.0,52.7,30.15,North,360,0.0,0.0,92,0.00,,,0.00,Wunderground v.1.15,2013-08-10 08:01:00,
2013-08-10 03:06:00,54.8,52.5,30.14,North,360,0.0,0.0,92,0.00,,,0.00,Wunderground v.1.15,2013-08-10 08:06:00,
2013-08-10 03:11:00,54.5,52.5,30.14,North,360,0.0,0.0,93,0.00,,,0.00,Wunderground v.1.15,2013-08-10 08:11:00,
2013-08-10 03:16:00,54.3,52.3,30.14,North,360,0.0,0.0,93,0.00,,,0.00,Wunderground v.1.15,2013-08-10 08:16:00,
2013-08-10 03:22:00,54.1,52.1,30.14,North,360,0.0,0.0,93,0.00,,,0.00,Wunderground v.1.15,2013-08-10 08:22:00,
2013-08-10 03:27:00,53.9,51.9,30.14,North,360,0.0,0.0,93,0.00,,,0.00,Wunderground v.1.15,2013-08-10 08:27:00,
2013-08-10 03:32:00,53.7,51.7,30.14,North,360,0.0,0.0,93,0.00,,,0.00,Wunderground v.1.15,2013-08-10 08:32:00,
2013-08-10 03:37:00,53.6,51.6,30.14,North,360,0.0,0.0,93,0.00,,,0.00,Wunderground v.1.15,2013-08-10 08:37:00,
2013-08-10 03:42:00,53.5,51.8,30.14,North,360,0.0,0.0,94,0.00,,,0.00,Wunderground v.1.15,2013-08-10 08:42:00,
2013-08-10 03:47:00,53.3,51.6,30.14,North,360,0.0,0.0,94,0.00,,,0.00,Wunderground v.1.15,2013-08-10 08:47:00,
2013-08-10 03:52:00,53.1,51.4,30.14,North,360,0.0,0.0,94,0.00,,,0.00,Wunderground v.1.15,2013-08-10 08:52:00,
2013-08-10 03:57:00,52.9,51.2,30.15,North,360,0.0,0.0,94,0.00,,,0.00,Wunderground v.1.15,2013-08-10 08:57:00,
2013-08-10 04:03:00,52.7,51.0,30.14,North,360,0.0,0.0,94,0.00,,,0.00,Wunderground v.1.15,2013-08-10 09:03:00,
2013-08-10 04:08:00,52.5,50.8,30.15,North,360,0.0,0.0,94,0.00,,,0.00,Wunderground v.1.15,2013-08-10 09:08:00,
2013-08-10 04:13:00,52.3,50.6,30.15,North,360,0.0,0.0,94,0.00,,,0.00,Wunderground v.1.15,2013-08-10 09:13:00,
2013-08-10 04:18:00,52.2,50.5,30.15,North,360,0.0,0.0,94,0.00,,,0.00,Wunderground v.1.15,2013-08-10 09:18:00,
2013-08-10 04:23:00,52.0,50.3,30.15,North,360,0.0,0.0,94,0.00,,,0.00,Wunderground v.1.15,2013-08-10 09:23:00,
2013-08-10 04:28:00,51.8,50.1,30.15,North,360,0.0,0.0,94,0.00,,,0.00,Wunderground v.1.15,2013-08-10 09:28:00,
2013-08-10 04:33:00,51.6,49.9,30.16,North,360,0.0,0.0,94,0.00,,,0.00,Wunderground v.1.15,2013-08-10 09:33:00,
2013-08-10 04:38:00,51.5,49.8,30.16,North,360,0.0,0.0,94,0.00,,,0.00,Wunderground v.1.15,2013-08-10 09:38:00,
2013-08-10 04:43:00,51.3,49.9,30.16,North,360,0.0,0.0,95,0.00,,,0.00,Wunderground v.1.15,2013-08-10 09:43:00,
2013-08-10 04:48:00,51.2,49.8,30.16,North,360,0.0,0.0,95,0.00,,,0.00,Wunderground v.1.15,2013-08-10 09:48:00,
2013-08-10 04:53:00,51.0,49.6,30.16,North,360,0.0,0.0,95,0.00,,,0.00,Wunderground v.1.15,2013-08-10 09:53:00,
2013-08-10 04:59:00,50.9,49.5,30.16,North,360,0.0,0.0,95,0.00,,,0.00,Wunderground v.1.15,2013-08-10 09:59:00,
2013-08-10 05:04:00,50.8,49.4,30.16,North,360,0.0,0.0,95,0.00,,,0.00,Wunderground v.1.15,2013-08-10 10:04:00,
2013-08-10 05:09:00,50.8,49.4,30.16,North,360,0.0,0.0,95,0.00,,,0.00,Wunderground v.1.15,2013-08-10 10:09:00,
2013-08-10 05:14:00,50.7,49.3,30.15,North,360,0.0,0.0,95,0.00,,,0.00,Wunderground v.1.15,2013-08-10 10:14:00,
2013-08-10 05:19:00,50.6,49.5,30.15,North,360,0.0,0.0,96,0.00,,,0.00,Wunderground v.1.15,2013-08-10 10:19:00,
2013-08-10 05:24:00,50.6,49.5,30.15,North,360,0.0,0.0,96,0.00,,,0.00,Wunderground v.1.15,2013-08-10 10:24:00,
2013-08-10 05:29:00,50.7,49.6,30.16,North,360,0.0,0.0,96,0.00,,,0.00,Wunderground v.1.15,2013-08-10 10:29:00,
2013-08-10 05:35:00,50.8,49.7,30.16,North,360,0.0,0.0,96,0.00,,,0.00,Wunderground v.1.15,2013-08-10 10:35:00,
2013-08-10 05:40:00,50.8,49.7,30.15,North,360,0.0,0.0,96,0.00,,,0.00,Wunderground v.1.15,2013-08-10 10:40:00,
2013-08-10 05:45:00,50.8,50.0,30.15,North,360,0.0,0.0,97,0.00,,,0.00,Wunderground v.1.15,2013-08-10 10:45:00,
2013-08-10 05:50:00,50.8,50.0,30.16,North,360,0.0,0.0,97,0.00,,,0.00,Wunderground v.1.15,2013-08-10 10:50:00,
2013-08-10 05:55:00,50.8,49.7,30.16,North,360,0.0,0.0,96,0.00,,,0.00,Wunderground v.1.15,2013-08-10 10:55:00,
2013-08-10 06:00:00,50.7,49.6,30.16,North,360,0.0,0.0,96,0.00,,,0.00,Wunderground v.1.15,2013-08-10 11:00:00,
2013-08-10 06:06:00,50.7,49.9,30.16,North,360,0.0,0.0,97,0.00,,,0.00,Wunderground v.1.15,2013-08-10 11:06:00,
2013-08-10 06:11:00,50.6,49.8,30.16,North,360,0.0,0.0,97,0.00,,,0.00,Wunderground v.1.15,2013-08-10 11:11:00,
2013-08-10 06:16:00,50.8,50.0,30.17,North,360,0.0,0.0,97,0.00,,,0.00,Wunderground v.1.15,2013-08-10 11:16:00,
2013-08-10 06:21:00,50.9,50.1,30.16,North,360,0.0,0.0,97,0.00,,,0.00,Wunderground v.1.15,2013-08-10 11:21:00,
2013-08-10 06:26:00,50.8,50.0,30.16,North,360,0.0,0.0,97,0.00,,,0.00,Wunderground v.1.15,2013-08-10 11:26:00,
2013-08-10 06:31:00,50.8,50.0,30.17,North,360,0.0,0.0,97,0.00,,,0.00,Wunderground v.1.15,2013-08-10 11:31:00,
2013-08-10 06:36:00,50.6,49.8,30.17,North,360,0.0,0.0,97,0.00,,,0.00,Wunderground v.1.15,2013-08-10 11:36:00,
2013-08-10 06:42:00,50.6,49.8,30.17,North,360,0.0,0.0,97,0.00,,,0.00,Wunderground v.1.15,2013-08-10 11:42:00,
2013-08-10 06:47:00,50.5,49.7,30.17,North,360,0.0,0.0,97,0.00,,,0.00,Wunderground v.1.15,2013-08-10 11:47:00,
2013-08-10 06:52:00,50.6,49.8,30.17,North,360,0.0,0.0,97,0.00,,,0.00,Wunderground v.1.15,2013-08-10 11:52:00,
2013-08-10 06:57:00,50.7,49.9,30.17,North,360,0.0,0.0,97,0.00,,,0.00,Wunderground v.1.15,2013-08-10 11:57:00,
2013-08-10 07:02:00,50.7,49.9,30.17,North,360,0.0,0.0,97,0.00,,,0.00,Wunderground v.1.15,2013-08-10 12:02:00,
2013-08-10 07:07:00,50.8,50.0,30.17,North,360,0.0,0.0,97,0.00,,,0.00,Wunderground v.1.15,2013-08-10 12:07:00,
2013-08-10 07:12:00,51.1,50.6,30.17,North,360,0.0,0.0,98,0.00,,,0.00,Wunderground v.1.15,2013-08-10 12:12:00,
2013-08-10 07:17:00,51.3,50.8,30.17,North,360,0.0,0.0,98,0.00,,,0.00,Wunderground v.1.15,2013-08-10 12:17:00,
2013-08-10 07:22:00,51.5,51.0,30.17,North,360,0.0,0.0,98,0.00,,,0.00,Wunderground v.1.15,2013-08-10 12:22:00,
2013-08-10 07:27:00,52.1,51.6,30.17,North,360,0.0,0.0,98,0.00,,,0.00,Wunderground v.1.15,2013-08-10 12:27:00,
2013-08-10 07:32:00,52.3,51.8,30.17,North,360,0.0,0.0,98,0.00,,,0.00,Wunderground v.1.15,2013-08-10 12:32:00,
2013-08-10 07:38:00,52.7,52.4,30.17,North,360,0.0,0.0,99,0.00,,,0.00,Wunderground v.1.15,2013-08-10 12:38:00,
2013-08-10 07:43:00,53.9,53.6,30.17,North,360,0.0,0.0,99,0.00,,,0.00,Wunderground v.1.15,2013-08-10 12:43:00,
2013-08-10 07:48:00,54.8,54.5,30.17,North,360,0.0,0.0,99,0.00,,,0.00,Wunderground v.1.15,2013-08-10 12:48:00,
2013-08-10 07:53:00,55.3,55.0,30.18,North,360,0.0,0.0,99,0.00,,,0.00,Wunderground v.1.15,2013-08-10 12:53:00,
2013-08-10 07:58:00,55.8,55.5,30.17,North,360,0.0,0.0,99,0.00,,,0.00,Wunderground v.1.15,2013-08-10 12:58:00,
2013-08-10 08:03:00,56.2,55.9,30.17,North,360,0.0,0.0,99,0.00,,,0.00,Wunderground v.1.15,2013-08-10 13:03:00,
2013-08-10 08:08:00,56.6,56.3,30.17,North,360,0.0,0.0,99,0.00,,,0.00,Wunderground v.1.15,2013-08-10 13:08:00,
2013-08-10 08:13:00,56.9,56.6,30.17,North,360,0.0,0.0,99,0.00,,,0.00,Wunderground v.1.15,2013-08-10 13:13:00,
2013-08-10 08:19:00,57.3,57.0,30.17,North,360,0.0,0.0,99,0.00,,,0.00,Wunderground v.1.15,2013-08-10 13:19:00,
2013-08-10 08:24:00,57.7,57.1,30.17,North,360,0.0,0.0,98,0.00,,,0.00,Wunderground v.1.15,2013-08-10 13:24:00,
2013-08-10 08:29:00,58.7,58.1,30.17,North,360,0.0,0.0,98,0.00,,,0.00,Wunderground v.1.15,2013-08-10 13:29:00,
2013-08-10 08:34:00,59.7,58.8,30.17,North,360,1.0,1.0,97,0.00,,,0.00,Wunderground v.1.15,2013-08-10 13:34:00,
2013-08-10 08:39:00,60.6,59.2,30.17,North,360,0.0,3.0,95,0.00,,,0.00,Wunderground v.1.15,2013-08-10 13:39:00,
2013-08-10 08:44:00,61.6,59.6,30.17,North,360,1.0,2.0,93,0.00,,,0.00,Wunderground v.1.15,2013-08-10 13:44:00,
2013-08-10 08:49:00,62.9,59.9,30.17,North,360,0.0,3.0,90,0.00,,,0.00,Wunderground v.1.15,2013-08-10 13:49:00,
2013-08-10 08:54:00,63.8,60.2,30.17,North,360,0.0,0.0,88,0.00,,,0.00,Wunderground v.1.15,2013-08-10 13:54:00,
2013-08-10 08:59:00,64.7,60.1,30.17,NNW,348,1.0,2.0,85,0.00,,,0.00,Wunderground v.1.15,2013-08-10 13:59:00,
2013-08-10 09:04:00,65.7,60.1,30.17,NNW,347,2.0,3.0,82,0.00,,,0.00,Wunderground v.1.15,2013-08-10 14:04:00,
2013-08-10 09:10:00,67.0,60.6,30.17,NNW,347,0.0,3.0,80,0.00,,,0.00,Wunderground v.1.15,2013-08-10 14:10:00,
2013-08-10 09:15:00,67.7,61.0,30.17,West,277,0.0,3.0,79,0.00,,,0.00,Wunderground v.1.15,2013-08-10 14:15:00,
2013-08-10 09:20:00,68.3,61.2,30.17,West,277,0.0,3.0,78,0.00,,,0.00,Wunderground v.1.15,2013-08-10 14:20:00,
2013-08-10 09:25:00,68.7,60.8,30.17,West,277,0.0,0.0,76,0.00,,,0.00,Wunderground v.1.15,2013-08-10 14:25:00,
2013-08-10 09:30:00,69.2,61.3,30.17,West,277,0.0,2.0,76,0.00,,,0.00,Wunderground v.1.15,2013-08-10 14:30:00,
2013-08-10 09:35:00,69.1,61.2,30.17,NNE,19,0.0,3.0,76,0.00,,,0.00,Wunderground v.1.15,2013-08-10 14:35:00,
2013-08-10 09:40:00,69.2,61.3,30.17,NNE,14,1.0,3.0,76,0.00,,,0.00,Wunderground v.1.15,2013-08-10 14:40:00,
2013-08-10 09:45:00,69.5,60.8,30.17,NW,324,0.0,3.0,74,0.00,,,0.00,Wunderground v.1.15,2013-08-10 14:45:00,
2013-08-10 09:51:00,69.7,61.0,30.16,NW,324,0.0,3.0,74,0.00,,,0.00,Wunderground v.1.15,2013-08-10 14:51:00,
2013-08-10 09:56:00,70.3,60.1,30.17,NW,325,0.0,0.0,70,0.00,,,0.00,Wunderground v.1.15,2013-08-10 14:56:00,
2013-08-10 10:01:00,70.9,60.2,30.17,NW,325,0.0,0.0,69,0.00,,,0.00,Wunderground v.1.15,2013-08-10 15:01:00,
2013-08-10 10:06:00,71.2,60.1,30.17,NW,325,0.0,0.0,68,0.00,,,0.00,Wunderground v.1.15,2013-08-10 15:06:00,
2013-08-10 10:11:00,70.8,60.1,30.17,NW,325,0.0,2.0,69,0.00,,,0.00,Wunderground v.1.15,2013-08-10 15:11:00,
2013-08-10 10:16:00,71.2,60.1,30.17,ENE,58,0.0,2.0,68,0.00,,,0.00,Wunderground v.1.15,2013-08-10 15:16:00,
2013-08-10 10:22:00,70.9,59.8,30.17,SW,216,1.0,4.0,68,0.00,,,0.00,Wunderground v.1.15,2013-08-10 15:22:00,
2013-08-10 10:27:00,70.8,60.5,30.17,WNW,290,0.0,3.0,70,0.00,,,0.00,Wunderground v.1.15,2013-08-10 15:27:00,
2013-08-10 10:32:00,71.4,59.9,30.17,WNW,290,0.0,3.0,67,0.00,,,0.00,Wunderground v.1.15,2013-08-10 15:32:00,
2013-08-10 10:37:00,71.8,59.8,30.17,WNW,290,0.0,2.0,66,0.00,,,0.00,Wunderground v.1.15,2013-08-10 15:37:00,
2013-08-10 10:42:00,72.6,60.6,30.17,WNW,289,0.0,2.0,66,0.00,,,0.00,Wunderground v.1.15,2013-08-10 15:42:00,
2013-08-10 10:47:00,73.6,62.0,30.17,WNW,290,0.0,2.0,67,0.00,,,0.00,Wunderground v.1.15,2013-08-10 15:47:00,
2013-08-10 10:52:00,73.7,60.3,30.17,WNW,290,0.0,0.0,63,0.00,,,0.00,Wunderground v.1.15,2013-08-10 15:52:00,
2013-08-10 10:57:00,72.8,60.3,30.17,WNW,290,0.0,2.0,65,0.00,,,0.00,Wunderground v.1.15,2013-08-10 15:57:00,
2013-08-10 11:02:00,71.7,60.2,30.17,WNW,290,0.0,0.0,67,0.00,,,0.00,Wunderground v.1.15,2013-08-10 16:02:00,
2013-08-10 11:08:00,70.8,59.7,30.18,WNW,290,3.0,3.0,68,0.00,,,0.00,Wunderground v.1.15,2013-08-10 16:08:00,
2013-08-10 11:13:00,70.0,59.0,30.17,WNW,290,0.0,1.0,68,0.00,,,0.00,Wunderground v.1.15,2013-08-10 16:13:00,
2013-08-10 11:18:00,69.7,58.7,30.17,WNW,290,0.0,1.0,68,0.00,,,0.00,Wunderground v.1.15,2013-08-10 16:18:00,
2013-08-10 11:24:00,69.5,57.2,30.17,WNW,290,0.0,0.0,65,0.00,,,0.00,Wunderground v.1.15,2013-08-10 16:24:00,
2013-08-10 11:29:00,69.6,58.6,30.18,WNW,290,0.0,0.0,68,0.00,,,0.00,Wunderground v.1.15,2013-08-10 16:29:00,
2013-08-10 11:34:00,69.9,59.3,30.17,WNW,290,0.0,0.0,69,0.00,,,0.00,Wunderground v.1.15,2013-08-10 16:34:00,
2013-08-10 11:39:00,69.8,59.6,30.17,WNW,290,0.0,1.0,70,0.00,,,0.00,Wunderground v.1.15,2013-08-10 16:39:00,
2013-08-10 11:44:00,70.5,58.6,30.17,WNW,290,0.0,0.0,66,0.00,,,0.00,Wunderground v.1.15,2013-08-10 16:44:00,
2013-08-10 11:49:00,71.0,60.7,30.17,WNW,290,0.0,1.0,70,0.00,,,0.00,Wunderground v.1.15,2013-08-10 16:49:00,
2013-08-10 11:54:00,71.1,58.3,30.17,WNW,290,0.0,0.0,64,0.00,,,0.00,Wunderground v.1.15,2013-08-10 16:54:00,
2013-08-10 11:59:00,70.9,58.1,30.17,WNW,290,0.0,2.0,64,0.00,,,0.00,Wunderground v.1.15,2013-08-10 16:59:00,
2013-08-10 12:04:00,71.0,59.9,30.17,WNW,290,0.0,0.0,68,0.00,,,0.00,Wunderground v.1.15,2013-08-10 17:04:00,
2013-08-10 12:10:00,71.1,58.7,30.17,West,277,0.0,3.0,65,0.00,,,0.00,Wunderground v.1.15,2013-08-10 17:10:00,
2013-08-10 12:15:00,70.9,58.5,30.17,West,277,3.0,4.0,65,0.00,,,0.00,Wunderground v.1.15,2013-08-10 17:15:00,
2013-08-10 12:20:00,71.1,60.0,30.17,West,277,0.0,4.0,68,0.00,,,0.00,Wunderground v.1.15,2013-08-10 17:20:00,
2013-08-10 12:25:00,71.2,57.5,30.17,West,277,0.0,1.0,62,0.00,,,0.00,Wunderground v.1.15,2013-08-10 17:25:00,
2013-08-10 12:30:00,71.1,58.7,30.17,West,277,0.0,2.0,65,0.00,,,0.00,Wunderground v.1.15,2013-08-10 17:30:00,
2013-08-10 12:35:00,71.2,58.8,30.17,West,277,0.0,0.0,65,0.00,,,0.00,Wunderground v.1.15,2013-08-10 17:35:00,
2013-08-10 12:40:00,71.7,58.4,30.16,West,277,3.0,3.0,63,0.00,,,0.00,Wunderground v.1.15,2013-08-10 17:40:00,
2013-08-10 12:45:00,72.2,58.9,30.17,West,277,4.0,4.0,63,0.00,,,0.00,Wunderground v.1.15,2013-08-10 17:45:00,
2013-08-10 12:50:00,72.6,58.4,30.17,West,277,0.0,4.0,61,0.00,,,0.00,Wunderground v.1.15,2013-08-10 17:50:00,
2013-08-10 12:55:00,72.3,59.4,30.16,NNW,345,1.0,7.0,64,0.00,,,0.00,Wunderground v.1.15,2013-08-10 17:55:00,
2013-08-10 13:01:00,72.7,59.4,30.16,West,279,1.0,7.0,63,0.00,,,0.00,Wunderground v.1.15,2013-08-10 18:01:00,
2013-08-10 13:06:00,72.8,59.5,30.16,WNW,282,0.0,1.0,63,0.00,,,0.00,Wunderground v.1.15,2013-08-10 18:06:00,
2013-08-10 13:11:00,73.0,58.8,30.17,WNW,284,2.0,3.0,61,0.00,,,0.00,Wunderground v.1.15,2013-08-10 18:11:00,
2013-08-10 13:16:00,73.4,58.7,30.16,WNW,284,0.0,3.0,60,0.00,,,0.00,Wunderground v.1.15,2013-08-10 18:16:00,
2013-08-10 13:21:00,73.7,59.9,30.16,WNW,282,3.0,3.0,62,0.00,,,0.00,Wunderground v.1.15,2013-08-10 18:21:00,
2013-08-10 13:26:00,73.6,60.2,30.16,WSW,242,0.0,4.0,63,0.00,,,0.00,Wunderground v.1.15,2013-08-10 18:26:00,
2013-08-10 13:31:00,74.0,58.8,30.16,WNW,294,0.0,6.0,59,0.00,,,0.00,Wunderground v.1.15,2013-08-10 18:31:00,
2013-08-10 13:37:00,74.3,59.0,30.16,NW,312,3.0,3.0,59,0.00,,,0.00,Wunderground v.1.15,2013-08-10 18:37:00,
2013-08-10 13:42:00,74.4,57.7,30.17,WNW,295,0.0,4.0,56,0.00,,,0.00,Wunderground v.1.15,2013-08-10 18:42:00,
2013-08-10 13:47:00,74.6,57.4,30.16,NW,306,3.0,3.0,55,0.00,,,0.00,Wunderground v.1.15,2013-08-10 18:47:00,
2013-08-10 13:52:00,75.0,56.7,30.16,West,276,3.0,3.0,53,0.00,,,0.00,Wunderground v.1.15,2013-08-10 18:52:00,
2013-08-10 13:57:00,74.4,57.2,30.16,WSW,253,0.0,5.0,55,0.00,,,0.00,Wunderground v.1.15,2013-08-10 18:57:00,
2013-08-10 14:03:00,73.8,57.1,30.16,WSW,252,4.0,4.0,56,0.00,,,0.00,Wunderground v.1.15,2013-08-10 19:03:00,
2013-08-10 14:08:00,73.6,57.4,30.16,SSW,208,3.0,4.0,57,0.00,,,0.00,Wunderground v.1.15,2013-08-10 19:08:00,
2013-08-10 14:13:00,73.0,56.4,30.16,SW,232,1.0,2.0,56,0.00,,,0.00,Wunderground v.1.15,2013-08-10 19:13:00,
2013-08-10 14:18:00,73.0,56.4,30.16,SW,229,0.0,5.0,56,0.00,,,0.00,Wunderground v.1.15,2013-08-10 19:18:00,
2013-08-10 14:23:00,73.0,55.9,30.16,SW,229,0.0,1.0,55,0.00,,,0.00,Wunderground v.1.15,2013-08-10 19:23:00,
2013-08-10 14:29:00,73.3,56.2,30.16,SW,229,0.0,1.0,55,0.00,,,0.00,Wunderground v.1.15,2013-08-10 19:29:00,
2013-08-10 14:34:00,73.9,58.2,30.16,WSW,242,0.0,6.0,58,0.00,,,0.00,Wunderground v.1.15,2013-08-10 19:34:00,
2013-08-10 14:39:00,74.4,56.7,30.15,WSW,241,0.0,6.0,54,0.00,,,0.00,Wunderground v.1.15,2013-08-10 19:39:00,
2013-08-10 14:44:00,75.6,59.3,30.15,NW,309,0.0,4.0,57,0.00,,,0.00,Wunderground v.1.15,2013-08-10 19:44:00,
2013-08-10 14:49:00,76.8,58.9,30.15,West,279,0.0,5.0,54,0.00,,,0.00,Wunderground v.1.15,2013-08-10 19:49:00,
2013-08-10 14:54:00,76.7,58.8,30.15,West,274,3.0,3.0,54,0.00,,,0.00,Wunderground v.1.15,2013-08-10 19:54:00,
2013-08-10 14:59:00,76.1,57.2,30.15,WSW,255,0.0,4.0,52,0.00,,,0.00,Wunderground v.1.15,2013-08-10 19:59:00,
2013-08-10 15:04:00,75.8,58.5,30.15,West,273,0.0,6.0,55,0.00,,,0.00,Wunderground v.1.15,2013-08-10 20:04:00,
2013-08-10 15:09:00,76.0,56.6,30.15,WSW,243,0.0,6.0,51,0.00,,,0.00,Wunderground v.1.15,2013-08-10 20:09:00,
2013-08-10 15:14:00,75.7,55.7,30.15,SSW,209,0.0,2.0,50,0.00,,,0.00,Wunderground v.1.15,2013-08-10 20:14:00,
2013-08-10 15:20:00,76.8,59.9,30.14,SSW,209,0.0,2.0,56,0.00,,,0.00,Wunderground v.1.15,2013-08-10 20:20:00,
2013-08-10 15:25:00,77.9,58.9,30.14,SW,235,0.0,1.0,52,0.00,,,0.00,Wunderground v.1.15,2013-08-10 20:25:00,
2013-08-10 15:30:00,77.3,58.3,30.14,WSW,245,0.0,4.0,52,0.00,,,0.00,Wunderground v.1.15,2013-08-10 20:30:00,
2013-08-10 15:35:00,76.5,58.6,30.14,West,261,0.0,1.0,54,0.00,,,0.00,Wunderground v.1.15,2013-08-10 20:35:00,
2013-08-10 15:40:00,75.5,58.2,30.14,West,260,0.0,3.0,55,0.00,,,0.00,Wunderground v.1.15,2013-08-10 20:40:00,
2013-08-10 15:45:00,75.0,59.2,30.13,West,261,0.0,0.0,58,0.00,,,0.00,Wunderground v.1.15,2013-08-10 20:45:00,
2013-08-10 15:50:00,74.6,61.2,30.13,West,261,0.0,0.0,63,0.00,,,0.00,Wunderground v.1.15,2013-08-10 20:50:00,
2013-08-10 15:55:00,74.5,60.2,30.13,West,261,0.0,0.0,61,0.00,,,0.00,Wunderground v.1.15,2013-08-10 20:55:00,
2013-08-10 16:01:00,74.4,58.7,30.13,West,261,0.0,0.0,58,0.00,,,0.00,Wunderground v.1.15,2013-08-10 21:01:00,
2013-08-10 16:06:00,74.8,58.5,30.13,West,260,0.0,2.0,57,0.00,,,0.00,Wunderground v.1.15,2013-08-10 21:06:00,
2013-08-10 16:11:00,75.0,58.2,30.13,West,259,0.0,2.0,56,0.00,,,0.00,Wunderground v.1.15,2013-08-10 21:11:00,
2013-08-10 16:16:00,74.3,56.6,30.13,West,259,0.0,1.0,54,0.00,,,0.00,Wunderground v.1.15,2013-08-10 21:16:00,
2013-08-10 16:21:00,73.8,58.1,30.13,West,259,0.0,1.0,58,0.00,,,0.00,Wunderground v.1.15,2013-08-10 21:21:00,
2013-08-10 16:26:00,73.8,58.1,30.13,West,259,0.0,0.0,58,0.00,,,0.00,Wunderground v.1.15,2013-08-10 21:26:00,
2013-08-10 16:31:00,74.0,59.2,30.13,West,259,0.0,0.0,60,0.00,,,0.00,Wunderground v.1.15,2013-08-10 21:31:00,
2013-08-10 16:37:00,74.1,59.3,30.13,West,259,0.0,0.0,60,0.00,,,0.00,Wunderground v.1.15,2013-08-10 21:37:00,
2013-08-10 16:42:00,74.3,58.1,30.13,West,259,0.0,0.0,57,0.00,,,0.00,Wunderground v.1.15,2013-08-10 21:42:00,
2013-08-10 16:47:00,74.7,58.0,30.12,West,259,0.0,0.0,56,0.00,,,0.00,Wunderground v.1.15,2013-08-10 21:47:00,
2013-08-10 16:52:00,75.2,58.9,30.12,West,259,0.0,2.0,57,0.00,,,0.00,Wunderground v.1.15,2013-08-10 21:52:00,
2013-08-10 16:57:00,75.2,58.4,30.12,West,259,0.0,0.0,56,0.00,,,0.00,Wunderground v.1.15,2013-08-10 21:57:00,
2013-08-10 17:02:00,74.8,58.1,30.12,West,259,0.0,0.0,56,0.00,,,0.00,Wunderground v.1.15,2013-08-10 22:02:00,
2013-08-10 17:07:00,74.9,60.5,30.12,West,259,0.0,0.0,61,0.00,,,0.00,Wunderground v.1.15,2013-08-10 22:07:00,
2013-08-10 17:12:00,75.4,59.6,30.12,West,259,0.0,1.0,58,0.00,,,0.00,Wunderground v.1.15,2013-08-10 22:12:00,
2013-08-10 17:18:00,75.3,59.0,30.12,West,259,0.0,0.0,57,0.00,,,0.00,Wunderground v.1.15,2013-08-10 22:18:00,
2013-08-10 17:23:00,74.8,56.5,30.12,West,259,0.0,0.0,53,0.00,,,0.00,Wunderground v.1.15,2013-08-10 22:23:00,
2013-08-10 17:28:00,74.6,58.8,30.12,West,259,0.0,0.0,58,0.00,,,0.00,Wunderground v.1.15,2013-08-10 22:28:00,
2013-08-10 17:33:00,74.4,58.7,30.11,West,259,0.0,0.0,58,0.00,,,0.00,Wunderground v.1.15,2013-08-10 22:33:00,
2013-08-10 17:39:00,74.5,61.1,30.11,West,259,0.0,0.0,63,0.00,,,0.00,Wunderground v.1.15,2013-08-10 22:39:00,
2013-08-10 17:44:00,74.6,59.3,30.11,West,259,0.0,0.0,59,0.00,,,0.00,Wunderground v.1.15,2013-08-10 22:44:00,
2013-08-10 17:49:00,74.5,59.2,30.11,West,259,0.0,0.0,59,0.00,,,0.00,Wunderground v.1.15,2013-08-10 22:49:00,
2013-08-10 17:54:00,74.4,60.1,30.11,West,259,0.0,0.0,61,0.00,,,0.00,Wunderground v.1.15,2013-08-10 22:54:00,
2013-08-10 17:59:00,74.0,60.6,30.11,West,259,0.0,0.0,63,0.00,,,0.00,Wunderground v.1.15,2013-08-10 22:59:00,
2013-08-10 18:04:00,73.7,62.5,30.11,West,259,0.0,0.0,68,0.00,,,0.00,Wunderground v.1.15,2013-08-10 23:04:00,
2013-08-10 18:09:00,73.5,62.3,30.11,West,259,0.0,0.0,68,0.00,,,0.00,Wunderground v.1.15,2013-08-10 23:09:00,
2013-08-10 18:14:00,73.7,59.9,30.11,West,259,0.0,0.0,62,0.00,,,0.00,Wunderground v.1.15,2013-08-10 23:14:00,
2013-08-10 18:20:00,74.2,58.5,30.11,West,259,0.0,0.0,58,0.00,,,0.00,Wunderground v.1.15,2013-08-10 23:20:00,
2013-08-10 18:25:00,74.9,60.1,30.11,West,259,0.0,0.0,60,0.00,,,0.00,Wunderground v.1.15,2013-08-10 23:25:00,
2013-08-10 18:30:00,75.0,60.2,30.10,West,259,0.0,0.0,60,0.00,,,0.00,Wunderground v.1.15,2013-08-10 23:30:00,
2013-08-10 18:35:00,74.9,61.0,30.11,West,259,0.0,0.0,62,0.00,,,0.00,Wunderground v.1.15,2013-08-10 23:35:00,
2013-08-10 18:40:00,74.4,62.3,30.10,West,259,0.0,0.0,66,0.00,,,0.00,Wunderground v.1.15,2013-08-10 23:40:00,
2013-08-10 18:45:00,74.1,58.9,30.10,West,259,0.0,0.0,59,0.00,,,0.00,Wunderground v.1.15,2013-08-10 23:45:00,
2013-08-10 18:50:00,74.0,60.6,30.10,West,259,0.0,0.0,63,0.00,,,0.00,Wunderground v.1.15,2013-08-10 23:50:00,
2013-08-10 18:55:00,73.8,61.3,30.10,West,259,0.0,0.0,65,0.00,,,0.00,Wunderground v.1.15,2013-08-10 23:55:00,
2013-08-10 19:00:00,73.3,59.0,30.10,West,259,0.0,0.0,61,0.00,,,0.00,Wunderground v.1.15,2013-08-11 00:00:00,
2013-08-10 19:05:00,73.1,59.8,30.09,West,259,0.0,0.0,63,0.00,,,0.00,Wunderground v.1.15,2013-08-11 00:05:00,
2013-08-10 19:10:00,72.8,59.9,30.09,West,259,0.0,0.0,64,0.00,,,0.00,Wunderground v.1.15,2013-08-11 00:10:00,
2013-08-10 19:15:00,72.5,61.3,30.09,West,259,0.0,0.0,68,0.00,,,0.00,Wunderground v.1.15,2013-08-11 00:15:00,
2013-08-10 19:21:00,72.1,61.0,30.09,West,259,0.0,0.0,68,0.00,,,0.00,Wunderground v.1.15,2013-08-11 00:21:00,
2013-08-10 19:26:00,71.7,61.4,30.09,West,259,0.0,0.0,70,0.00,,,0.00,Wunderground v.1.15,2013-08-11 00:26:00,
2013-08-10 19:31:00,71.2,61.3,30.08,West,259,0.0,0.0,71,0.00,,,0.00,Wunderground v.1.15,2013-08-11 00:31:00,
2013-08-10 19:36:00,70.7,60.8,30.08,West,259,0.0,0.0,71,0.00,,,0.00,Wunderground v.1.15,2013-08-11 00:36:00,
2013-08-10 19:41:00,70.3,62.0,30.08,West,259,0.0,0.0,75,0.00,,,0.00,Wunderground v.1.15,2013-08-11 00:41:00,
2013-08-10 19:46:00,69.9,62.0,30.08,West,259,0.0,0.0,76,0.00,,,0.00,Wunderground v.1.15,2013-08-11 00:46:00,
2013-08-10 19:51:00,69.6,62.8,30.08,West,259,0.0,0.0,79,0.00,,,0.00,Wunderground v.1.15,2013-08-11 00:51:00,
2013-08-10 19:56:00,69.2,62.4,30.08,West,259,0.0,0.0,79,0.00,,,0.00,Wunderground v.1.15,2013-08-11 00:56:00,
2013-08-10 20:02:00,68.9,62.5,30.08,West,259,0.0,0.0,80,0.00,,,0.00,Wunderground v.1.15,2013-08-11 01:02:00,
2013-08-10 20:07:00,68.7,62.6,30.08,West,259,0.0,0.0,81,0.00,,,0.00,Wunderground v.1.15,2013-08-11 01:07:00,
2013-08-10 20:12:00,68.5,62.4,30.08,West,259,0.0,0.0,81,0.00,,,0.00,Wunderground v.1.15,2013-08-11 01:12:00,
2013-08-10 20:17:00,68.1,62.4,30.08,West,259,0.0,0.0,82,0.00,,,0.00,Wunderground v.1.15,2013-08-11 01:17:00,
2013-08-10 20:22:00,67.6,62.3,30.08,West,259,0.0,0.0,83,0.00,,,0.00,Wunderground v.1.15,2013-08-11 01:22:00,
2013-08-10 20:27:00,67.1,61.8,30.08,West,259,0.0,0.0,83,0.00,,,0.00,Wunderground v.1.15,2013-08-11 01:27:00,
2013-08-10 20:32:00,66.6,61.6,30.07,West,259,0.0,0.0,84,0.00,,,0.00,Wunderground v.1.15,2013-08-11 01:32:00,
2013-08-10 20:37:00,66.2,61.6,30.07,West,259,0.0,0.0,85,0.00,,,0.00,Wunderground v.1.15,2013-08-11 01:37:00,
2013-08-10 20:42:00,65.7,61.4,30.07,West,259,0.0,0.0,86,0.00,,,0.00,Wunderground v.1.15,2013-08-11 01:42:00,
2013-08-10 20:48:00,65.1,61.1,30.07,West,259,0.0,0.0,87,0.00,,,0.00,Wunderground v.1.15,2013-08-11 01:48:00,
2013-08-10 20:53:00,64.6,61.0,30.07,West,259,0.0,0.0,88,0.00,,,0.00,Wunderground v.1.15,2013-08-11 01:53:00,
2013-08-10 20:58:00,64.2,60.6,30.07,West,259,0.0,0.0,88,0.00,,,0.00,Wunderground v.1.15,2013-08-11 01:58:00,
2013-08-10 21:03:00,63.8,60.5,30.07,West,259,0.0,0.0,89,0.00,,,0.00,Wunderground v.1.15,2013-08-11 02:03:00,
2013-08-10 21:09:00,63.3,60.0,30.08,West,259,0.0,0.0,89,0.00,,,0.00,Wunderground v.1.15,2013-08-11 02:09:00,
2013-08-10 21:14:00,63.0,60.0,30.08,West,259,0.0,0.0,90,0.00,,,0.00,Wunderground v.1.15,2013-08-11 02:14:00,
2013-08-10 21:19:00,62.6,59.6,30.08,West,259,0.0,0.0,90,0.00,,,0.00,Wunderground v.1.15,2013-08-11 02:19:00,
2013-08-10 21:24:00,62.2,59.2,30.08,West,259,0.0,0.0,90,0.00,,,0.00,Wunderground v.1.15,2013-08-11 02:24:00,
2013-08-10 21:29:00,61.9,59.2,30.08,West,259,0.0,0.0,91,0.00,,,0.00,Wunderground v.1.15,2013-08-11 02:29:00,
2013-08-10 21:34:00,61.6,58.9,30.08,West,259,0.0,0.0,91,0.00,,,0.00,Wunderground v.1.15,2013-08-11 02:34:00,
2013-08-10 21:39:00,61.2,58.6,30.08,West,259,0.0,0.0,91,0.00,,,0.00,Wunderground v.1.15,2013-08-11 02:39:00,
2013-08-10 21:44:00,61.0,58.4,30.08,West,259,0.0,0.0,91,0.00,,,0.00,Wunderground v.1.15,2013-08-11 02:44:00,
2013-08-10 21:50:00,60.7,58.1,30.08,West,259,0.0,0.0,91,0.00,,,0.00,Wunderground v.1.15,2013-08-11 02:50:00,
2013-08-10 21:55:00,60.3,58.0,30.09,West,259,0.0,0.0,92,0.00,,,0.00,Wunderground v.1.15,2013-08-11 02:55:00,
2013-08-10 22:00:00,60.0,57.7,30.09,West,259,0.0,0.0,92,0.00,,,0.00,Wunderground v.1.15,2013-08-11 03:00:00,
2013-08-10 22:05:00,59.8,57.5,30.08,West,259,0.0,0.0,92,0.00,,,0.00,Wunderground v.1.15,2013-08-11 03:05:00,
2013-08-10 22:11:00,59.6,57.6,30.08,West,259,0.0,0.0,93,0.00,,,0.00,Wunderground v.1.15,2013-08-11 03:11:00,
2013-08-10 22:16:00,59.4,57.4,30.08,West,259,0.0,0.0,93,0.00,,,0.00,Wunderground v.1.15,2013-08-11 03:16:00,
2013-08-10 22:22:00,59.1,57.1,30.08,West,259,0.0,0.0,93,0.00,,,0.00,Wunderground v.1.15,2013-08-11 03:22:00,
2013-08-10 22:27:00,58.9,56.9,30.08,West,259,0.0,0.0,93,0.00,,,0.00,Wunderground v.1.15,2013-08-11 03:27:00,
2013-08-10 22:32:00,58.6,56.6,30.08,West,259,0.0,0.0,93,0.00,,,0.00,Wunderground v.1.15,2013-08-11 03:32:00,
2013-08-10 22:37:00,58.4,56.4,30.08,West,259,0.0,0.0,93,0.00,,,0.00,Wunderground v.1.15,2013-08-11 03:37:00,
2013-08-10 22:42:00,58.2,56.2,30.08,West,259,0.0,0.0,93,0.00,,,0.00,Wunderground v.1.15,2013-08-11 03:42:00,
2013-08-10 22:47:00,57.9,56.2,30.09,West,259,0.0,0.0,94,0.00,,,0.00,Wunderground v.1.15,2013-08-11 03:47:00,
2013-08-10 22:53:00,57.7,55.7,30.08,West,259,0.0,0.0,93,0.00,,,0.00,Wunderground v.1.15,2013-08-11 03:53:00,
2013-08-10 22:58:00,57.4,55.7,30.09,West,259,0.0,0.0,94,0.00,,,0.00,Wunderground v.1.15,2013-08-11 03:58:00,
2013-08-10 23:01:00,57.3,55.6,30.09,West,259,0.0,0.0,94,0.00,,,0.00,Wunderground v.1.15,2013-08-11 04:01:00,
2013-08-10 23:02:00,57.3,55.6,30.09,West,259,0.0,0.0,94,0.00,,,0.00,Wunderground v.1.15,2013-08-11 04:02:00,
2013-08-10 23:03:00,57.2,55.5,30.09,West,259,0.0,0.0,94,0.00,,,0.00,Wunderground v.1.15,2013-08-11 04:03:00,
2013-08-10 23:08:00,57.1,55.4,30.09,West,259,0.0,0.0,94,0.00,,,0.00,Wunderground v.1.15,2013-08-11 04:08:00,
2013-08-10 23:13:00,56.9,55.2,30.09,West,259,0.0,0.0,94,0.00,,,0.00,Wunderground v.1.15,2013-08-11 04:13:00,
2013-08-10 23:18:00,56.8,55.1,30.09,West,259,0.0,0.0,94,0.00,,,0.00,Wunderground v.1.15,2013-08-11 04:18:00,
2013-08-10 23:23:00,56.7,55.3,30.09,West,259,0.0,0.0,95,0.00,,,0.00,Wunderground v.1.15,2013-08-11 04:23:00,
2013-08-10 23:29:00,56.7,55.3,30.09,West,259,0.0,0.0,95,0.00,,,0.00,Wunderground v.1.15,2013-08-11 04:29:00,
2013-08-10 23:34:00,56.6,55.2,30.09,West,259,0.0,0.0,95,0.00,,,0.00,Wunderground v.1.15,2013-08-11 04:34:00,
2013-08-10 23:39:00,56.5,55.1,30.08,West,259,0.0,0.0,95,0.00,,,0.00,Wunderground v.1.15,2013-08-11 04:39:00,
2013-08-10 23:44:00,56.5,55.1,30.08,West,259,0.0,0.0,95,0.00,,,0.00,Wunderground v.1.15,2013-08-11 04:44:00,
2013-08-10 23:49:00,56.4,55.3,30.08,West,259,0.0,0.0,96,0.00,,,0.00,Wunderground v.1.15,2013-08-11 04:49:00,
2013-08-10 23:54:00,56.5,55.4,30.08,West,259,0.0,0.0,96,0.00,,,0.00,Wunderground v.1.15,2013-08-11 04:54:00,